sensor_id;sensor_type;location;lat;lon;timestamp;P1;durP1;ratioP1;P2;durP2;ratioP2
828;SDS011;396;52.558;13.188;2023-03-01T00:01:24;9.47;;;3.47;;
828;SDS011;396;52.558;13.188;2023-03-01T00:03:52;9.13;;;4.00;;
828;SDS011;396;52.558;13.188;2023-03-01T00:06:20;10.07;;;4.00;;
828;SDS011;396;52.558;13.188;2023-03-01T00:08:47;12.03;;;4.20;;
828;SDS011;396;52.558;13.188;2023-03-01T00:11:16;15.47;;;4.07;;
828;SDS011;396;52.558;13.188;2023-03-01T00:13:45;11.70;;;4.10;;
828;SDS011;396;52.558;13.188;2023-03-01T00:16:13;11.07;;;3.80;;
828;SDS011;396;52.558;13.188;2023-03-01T00:18:42;12.50;;;5.03;;
828;SDS011;396;52.558;13.188;2023-03-01T00:21:08;11.70;;;4.60;;
828;SDS011;396;52.558;13.188;2023-03-01T00:23:35;13.83;;;4.53;;
828;SDS011;396;52.558;13.188;2023-03-01T00:26:02;8.37;;;3.97;;
828;SDS011;396;52.558;13.188;2023-03-01T00:28:33;11.53;;;3.87;;
828;SDS011;396;52.558;13.188;2023-03-01T00:31:02;14.17;;;5.10;;
828;SDS011;396;52.558;13.188;2023-03-01T00:33:30;14.70;;;4.90;;
828;SDS011;396;52.558;13.188;2023-03-01T00:35:57;14.03;;;5.27;;
828;SDS011;396;52.558;13.188;2023-03-01T00:38:24;12.70;;;5.27;;
828;SDS011;396;52.558;13.188;2023-03-01T00:40:51;10.80;;;4.17;;
828;SDS011;396;52.558;13.188;2023-03-01T00:43:17;13.90;;;5.17;;
828;SDS011;396;52.558;13.188;2023-03-01T00:45:45;11.30;;;5.00;;
828;SDS011;396;52.558;13.188;2023-03-01T00:48:12;11.17;;;3.83;;
828;SDS011;396;52.558;13.188;2023-03-01T00:50:39;9.93;;;4.57;;
828;SDS011;396;52.558;13.188;2023-03-01T00:53:05;9.53;;;4.43;;
828;SDS011;396;52.558;13.188;2023-03-01T00:55:32;18.00;;;5.80;;
828;SDS011;396;52.558;13.188;2023-03-01T00:57:58;14.47;;;6.20;;
828;SDS011;396;52.558;13.188;2023-03-01T01:00:25;16.80;;;7.17;;
828;SDS011;396;52.558;13.188;2023-03-01T01:02:55;12.93;;;6.80;;
828;SDS011;396;52.558;13.188;2023-03-01T01:05:21;17.20;;;5.93;;
828;SDS011;396;52.558;13.188;2023-03-01T01:07:48;12.93;;;6.90;;
828;SDS011;396;52.558;13.188;2023-03-01T01:10:14;15.00;;;6.60;;
828;SDS011;396;52.558;13.188;2023-03-01T01:12:43;18.63;;;6.57;;
828;SDS011;396;52.558;13.188;2023-03-01T01:15:10;14.73;;;6.00;;
828;SDS011;396;52.558;13.188;2023-03-01T01:17:39;13.77;;;5.93;;
828;SDS011;396;52.558;13.188;2023-03-01T01:20:08;12.83;;;5.43;;
828;SDS011;396;52.558;13.188;2023-03-01T01:22:35;20.63;;;6.83;;
828;SDS011;396;52.558;13.188;2023-03-01T01:25:02;13.67;;;6.40;;
828;SDS011;396;52.558;13.188;2023-03-01T01:27:29;18.10;;;7.23;;
828;SDS011;396;52.558;13.188;2023-03-01T01:29:55;13.10;;;5.97;;
828;SDS011;396;52.558;13.188;2023-03-01T01:32:22;12.60;;;5.70;;
828;SDS011;396;52.558;13.188;2023-03-01T01:34:48;16.27;;;5.73;;
828;SDS011;396;52.558;13.188;2023-03-01T01:37:16;15.20;;;6.20;;
828;SDS011;396;52.558;13.188;2023-03-01T01:39:43;18.20;;;7.63;;
828;SDS011;396;52.558;13.188;2023-03-01T01:42:11;14.50;;;5.30;;
828;SDS011;396;52.558;13.188;2023-03-01T01:44:42;12.40;;;5.87;;
828;SDS011;396;52.558;13.188;2023-03-01T01:47:11;16.70;;;6.60;;
828;SDS011;396;52.558;13.188;2023-03-01T01:49:44;12.97;;;6.53;;
828;SDS011;396;52.558;13.188;2023-03-01T01:52:13;12.70;;;6.30;;
828;SDS011;396;52.558;13.188;2023-03-01T01:54:47;15.00;;;6.10;;
828;SDS011;396;52.558;13.188;2023-03-01T01:57:20;17.60;;;6.10;;
828;SDS011;396;52.558;13.188;2023-03-01T01:59:50;17.30;;;7.23;;
828;SDS011;396;52.558;13.188;2023-03-01T02:02:19;20.60;;;7.80;;
828;SDS011;396;52.558;13.188;2023-03-01T02:04:46;15.27;;;7.70;;
828;SDS011;396;52.558;13.188;2023-03-01T02:07:15;11.27;;;5.90;;
828;SDS011;396;52.558;13.188;2023-03-01T02:09:45;23.40;;;8.53;;
828;SDS011;396;52.558;13.188;2023-03-01T02:12:13;14.27;;;6.97;;
828;SDS011;396;52.558;13.188;2023-03-01T02:14:40;15.10;;;6.43;;
828;SDS011;396;52.558;13.188;2023-03-01T02:17:07;13.37;;;6.20;;
828;SDS011;396;52.558;13.188;2023-03-01T02:19:38;17.13;;;7.63;;
828;SDS011;396;52.558;13.188;2023-03-01T02:22:12;16.90;;;7.27;;
828;SDS011;396;52.558;13.188;2023-03-01T02:24:49;15.20;;;6.77;;
828;SDS011;396;52.558;13.188;2023-03-01T02:27:26;13.50;;;6.23;;
828;SDS011;396;52.558;13.188;2023-03-01T02:30:00;23.90;;;7.30;;
828;SDS011;396;52.558;13.188;2023-03-01T02:32:27;13.63;;;6.87;;
828;SDS011;396;52.558;13.188;2023-03-01T02:34:53;13.67;;;6.30;;
828;SDS011;396;52.558;13.188;2023-03-01T02:37:21;16.47;;;7.63;;
828;SDS011;396;52.558;13.188;2023-03-01T02:39:51;24.07;;;7.13;;
828;SDS011;396;52.558;13.188;2023-03-01T02:42:23;17.37;;;6.97;;
828;SDS011;396;52.558;13.188;2023-03-01T02:44:54;10.60;;;5.83;;
828;SDS011;396;52.558;13.188;2023-03-01T02:47:22;17.63;;;7.27;;
828;SDS011;396;52.558;13.188;2023-03-01T02:49:49;15.83;;;6.93;;
828;SDS011;396;52.558;13.188;2023-03-01T02:55:10;15.20;;;6.67;;
828;SDS011;396;52.558;13.188;2023-03-01T02:57:39;16.35;;;6.65;;
828;SDS011;396;52.558;13.188;2023-03-01T03:00:09;19.30;;;7.63;;
828;SDS011;396;52.558;13.188;2023-03-01T03:02:45;20.30;;;7.93;;
828;SDS011;396;52.558;13.188;2023-03-01T03:05:13;17.60;;;7.33;;
828;SDS011;396;52.558;13.188;2023-03-01T03:07:43;15.73;;;6.23;;
828;SDS011;396;52.558;13.188;2023-03-01T03:10:12;18.23;;;8.10;;
828;SDS011;396;52.558;13.188;2023-03-01T03:12:41;14.73;;;6.13;;
828;SDS011;396;52.558;13.188;2023-03-01T03:15:09;20.97;;;7.30;;
828;SDS011;396;52.558;13.188;2023-03-01T03:17:38;15.97;;;7.10;;
828;SDS011;396;52.558;13.188;2023-03-01T03:20:08;15.87;;;7.40;;
828;SDS011;396;52.558;13.188;2023-03-01T03:22:36;19.65;;;8.85;;
828;SDS011;396;52.558;13.188;2023-03-01T03:25:04;18.40;;;7.50;;
828;SDS011;396;52.558;13.188;2023-03-01T03:27:35;15.80;;;6.63;;
828;SDS011;396;52.558;13.188;2023-03-01T03:30:03;17.87;;;7.13;;
828;SDS011;396;52.558;13.188;2023-03-01T03:32:33;16.20;;;7.23;;
828;SDS011;396;52.558;13.188;2023-03-01T03:35:00;19.30;;;7.00;;
828;SDS011;396;52.558;13.188;2023-03-01T03:37:28;15.40;;;6.80;;
828;SDS011;396;52.558;13.188;2023-03-01T03:40:18;20.13;;;7.27;;
828;SDS011;396;52.558;13.188;2023-03-01T03:42:44;12.77;;;6.20;;
828;SDS011;396;52.558;13.188;2023-03-01T03:45:11;16.30;;;7.60;;
828;SDS011;396;52.558;13.188;2023-03-01T03:47:38;13.50;;;6.27;;
828;SDS011;396;52.558;13.188;2023-03-01T03:50:05;16.23;;;7.10;;
828;SDS011;396;52.558;13.188;2023-03-01T03:52:33;19.80;;;7.50;;
828;SDS011;396;52.558;13.188;2023-03-01T03:55:00;19.87;;;7.33;;
828;SDS011;396;52.558;13.188;2023-03-01T03:57:26;17.40;;;7.10;;
828;SDS011;396;52.558;13.188;2023-03-01T03:59:53;16.30;;;7.80;;
828;SDS011;396;52.558;13.188;2023-03-01T04:02:19;13.33;;;6.87;;
828;SDS011;396;52.558;13.188;2023-03-01T04:04:49;11.03;;;5.33;;
828;SDS011;396;52.558;13.188;2023-03-01T04:07:15;23.43;;;8.30;;
828;SDS011;396;52.558;13.188;2023-03-01T04:09:43;13.83;;;6.90;;
828;SDS011;396;52.558;13.188;2023-03-01T04:12:10;13.30;;;6.37;;
828;SDS011;396;52.558;13.188;2023-03-01T04:14:37;17.07;;;8.07;;
828;SDS011;396;52.558;13.188;2023-03-01T04:17:03;18.67;;;8.00;;
828;SDS011;396;52.558;13.188;2023-03-01T04:19:30;16.90;;;5.50;;
828;SDS011;396;52.558;13.188;2023-03-01T04:22:00;15.30;;;7.97;;
828;SDS011;396;52.558;13.188;2023-03-01T04:24:32;14.73;;;6.50;;
828;SDS011;396;52.558;13.188;2023-03-01T04:27:00;16.63;;;7.10;;
828;SDS011;396;52.558;13.188;2023-03-01T04:29:27;17.00;;;8.03;;
828;SDS011;396;52.558;13.188;2023-03-01T04:31:53;18.00;;;7.70;;
828;SDS011;396;52.558;13.188;2023-03-01T04:34:20;18.37;;;7.53;;
828;SDS011;396;52.558;13.188;2023-03-01T04:36:47;15.30;;;7.33;;
828;SDS011;396;52.558;13.188;2023-03-01T04:39:13;12.90;;;6.20;;
828;SDS011;396;52.558;13.188;2023-03-01T04:41:40;16.90;;;7.73;;
828;SDS011;396;52.558;13.188;2023-03-01T04:44:09;24.13;;;6.87;;
828;SDS011;396;52.558;13.188;2023-03-01T04:46:36;12.20;;;7.00;;
828;SDS011;396;52.558;13.188;2023-03-01T04:49:03;17.57;;;7.77;;
828;SDS011;396;52.558;13.188;2023-03-01T04:51:30;26.20;;;10.90;;
828;SDS011;396;52.558;13.188;2023-03-01T04:53:58;25.57;;;10.23;;
828;SDS011;396;52.558;13.188;2023-03-01T04:56:25;23.17;;;11.73;;
828;SDS011;396;52.558;13.188;2023-03-01T04:58:52;27.33;;;11.60;;
828;SDS011;396;52.558;13.188;2023-03-01T05:01:20;33.60;;;14.53;;
828;SDS011;396;52.558;13.188;2023-03-01T05:03:48;38.30;;;14.63;;
828;SDS011;396;52.558;13.188;2023-03-01T05:06:16;33.00;;;15.17;;
828;SDS011;396;52.558;13.188;2023-03-01T05:08:44;35.37;;;15.93;;
828;SDS011;396;52.558;13.188;2023-03-01T05:11:11;39.42;;;14.70;;
828;SDS011;396;52.558;13.188;2023-03-01T05:13:38;27.70;;;13.73;;
828;SDS011;396;52.558;13.188;2023-03-01T05:16:06;34.30;;;13.23;;
828;SDS011;396;52.558;13.188;2023-03-01T05:18:37;26.30;;;13.00;;
828;SDS011;396;52.558;13.188;2023-03-01T05:21:05;31.25;;;14.13;;
828;SDS011;396;52.558;13.188;2023-03-01T05:23:34;25.27;;;13.00;;
828;SDS011;396;52.558;13.188;2023-03-01T05:26:01;35.60;;;12.63;;
828;SDS011;396;52.558;13.188;2023-03-01T05:28:30;29.60;;;13.00;;
828;SDS011;396;52.558;13.188;2023-03-01T05:30:56;25.20;;;12.37;;
828;SDS011;396;52.558;13.188;2023-03-01T05:33:23;27.73;;;12.50;;
828;SDS011;396;52.558;13.188;2023-03-01T05:35:52;22.70;;;11.70;;
828;SDS011;396;52.558;13.188;2023-03-01T05:38:19;27.00;;;12.70;;
828;SDS011;396;52.558;13.188;2023-03-01T05:40:47;29.07;;;11.33;;
828;SDS011;396;52.558;13.188;2023-03-01T05:43:15;33.33;;;10.80;;
828;SDS011;396;52.558;13.188;2023-03-01T05:45:43;25.50;;;11.33;;
828;SDS011;396;52.558;13.188;2023-03-01T05:48:10;22.80;;;10.52;;
828;SDS011;396;52.558;13.188;2023-03-01T05:50:38;21.02;;;10.85;;
828;SDS011;396;52.558;13.188;2023-03-01T05:53:09;22.87;;;10.50;;
828;SDS011;396;52.558;13.188;2023-03-01T05:55:37;18.38;;;10.02;;
828;SDS011;396;52.558;13.188;2023-03-01T05:58:05;29.90;;;11.68;;
828;SDS011;396;52.558;13.188;2023-03-01T06:00:33;17.48;;;8.52;;
828;SDS011;396;52.558;13.188;2023-03-01T06:03:00;20.43;;;10.77;;
828;SDS011;396;52.558;13.188;2023-03-01T06:05:27;18.35;;;10.23;;
828;SDS011;396;52.558;13.188;2023-03-01T06:07:54;23.20;;;11.03;;
828;SDS011;396;52.558;13.188;2023-03-01T06:10:25;24.17;;;9.98;;
828;SDS011;396;52.558;13.188;2023-03-01T06:12:51;27.90;;;10.03;;
828;SDS011;396;52.558;13.188;2023-03-01T06:15:18;17.63;;;8.10;;
828;SDS011;396;52.558;13.188;2023-03-01T06:17:45;26.02;;;8.55;;
828;SDS011;396;52.558;13.188;2023-03-01T06:20:13;16.50;;;8.00;;
828;SDS011;396;52.558;13.188;2023-03-01T06:22:41;19.50;;;9.30;;
828;SDS011;396;52.558;13.188;2023-03-01T06:25:08;14.90;;;8.50;;
828;SDS011;396;52.558;13.188;2023-03-01T06:27:37;21.03;;;10.23;;
828;SDS011;396;52.558;13.188;2023-03-01T06:30:05;16.48;;;8.50;;
828;SDS011;396;52.558;13.188;2023-03-01T06:32:33;17.67;;;8.07;;
828;SDS011;396;52.558;13.188;2023-03-01T06:34:59;21.33;;;10.57;;
828;SDS011;396;52.558;13.188;2023-03-01T06:37:26;19.60;;;10.17;;
828;SDS011;396;52.558;13.188;2023-03-01T06:39:53;16.77;;;9.03;;
828;SDS011;396;52.558;13.188;2023-03-01T06:42:19;25.63;;;12.27;;
828;SDS011;396;52.558;13.188;2023-03-01T06:44:47;18.67;;;9.50;;
828;SDS011;396;52.558;13.188;2023-03-01T06:47:14;22.53;;;9.07;;
828;SDS011;396;52.558;13.188;2023-03-01T06:49:40;29.63;;;11.17;;
828;SDS011;396;52.558;13.188;2023-03-01T06:52:07;21.67;;;10.20;;
828;SDS011;396;52.558;13.188;2023-03-01T06:54:33;27.50;;;10.90;;
828;SDS011;396;52.558;13.188;2023-03-01T06:57:00;21.47;;;10.30;;
828;SDS011;396;52.558;13.188;2023-03-01T06:59:26;17.40;;;9.40;;
828;SDS011;396;52.558;13.188;2023-03-01T07:01:54;21.73;;;9.97;;
828;SDS011;396;52.558;13.188;2023-03-01T07:04:21;38.67;;;11.27;;
828;SDS011;396;52.558;13.188;2023-03-01T07:06:47;22.85;;;10.52;;
828;SDS011;396;52.558;13.188;2023-03-01T07:09:20;19.50;;;10.67;;
828;SDS011;396;52.558;13.188;2023-03-01T07:11:47;22.40;;;10.80;;
828;SDS011;396;52.558;13.188;2023-03-01T07:14:14;24.40;;;9.65;;
828;SDS011;396;52.558;13.188;2023-03-01T07:16:40;14.57;;;7.63;;
828;SDS011;396;52.558;13.188;2023-03-01T07:19:08;29.53;;;11.47;;
828;SDS011;396;52.558;13.188;2023-03-01T07:21:35;24.77;;;10.90;;
828;SDS011;396;52.558;13.188;2023-03-01T07:24:03;33.03;;;11.50;;
828;SDS011;396;52.558;13.188;2023-03-01T07:26:31;23.20;;;9.73;;
828;SDS011;396;52.558;13.188;2023-03-01T07:28:58;21.20;;;12.60;;
828;SDS011;396;52.558;13.188;2023-03-01T07:31:25;19.50;;;10.43;;
828;SDS011;396;52.558;13.188;2023-03-01T07:33:52;19.63;;;10.50;;
828;SDS011;396;52.558;13.188;2023-03-01T07:36:21;27.73;;;10.53;;
828;SDS011;396;52.558;13.188;2023-03-01T07:38:48;22.90;;;10.37;;
828;SDS011;396;52.558;13.188;2023-03-01T07:41:14;28.90;;;11.00;;
828;SDS011;396;52.558;13.188;2023-03-01T07:43:41;17.13;;;8.90;;
828;SDS011;396;52.558;13.188;2023-03-01T07:46:08;20.97;;;9.40;;
828;SDS011;396;52.558;13.188;2023-03-01T07:48:34;24.10;;;10.97;;
828;SDS011;396;52.558;13.188;2023-03-01T07:51:01;15.30;;;7.77;;
828;SDS011;396;52.558;13.188;2023-03-01T07:53:31;19.77;;;9.77;;
828;SDS011;396;52.558;13.188;2023-03-01T07:56:02;24.37;;;10.53;;
828;SDS011;396;52.558;13.188;2023-03-01T07:58:30;14.50;;;7.80;;
828;SDS011;396;52.558;13.188;2023-03-01T08:01:00;18.73;;;7.37;;
828;SDS011;396;52.558;13.188;2023-03-01T08:03:27;20.73;;;8.60;;
828;SDS011;396;52.558;13.188;2023-03-01T08:05:54;18.80;;;9.23;;
828;SDS011;396;52.558;13.188;2023-03-01T08:08:21;17.40;;;7.47;;
828;SDS011;396;52.558;13.188;2023-03-01T08:10:49;22.27;;;9.77;;
828;SDS011;396;52.558;13.188;2023-03-01T08:13:15;18.30;;;7.57;;
828;SDS011;396;52.558;13.188;2023-03-01T08:15:47;18.90;;;7.83;;
828;SDS011;396;52.558;13.188;2023-03-01T08:18:14;16.20;;;6.53;;
828;SDS011;396;52.558;13.188;2023-03-01T08:20:40;21.70;;;6.97;;
828;SDS011;396;52.558;13.188;2023-03-01T08:23:07;17.27;;;6.50;;
828;SDS011;396;52.558;13.188;2023-03-01T08:25:33;14.93;;;5.87;;
828;SDS011;396;52.558;13.188;2023-03-01T08:28:02;16.03;;;6.70;;
828;SDS011;396;52.558;13.188;2023-03-01T08:30:29;12.83;;;5.20;;
828;SDS011;396;52.558;13.188;2023-03-01T08:32:55;17.53;;;5.90;;
828;SDS011;396;52.558;13.188;2023-03-01T08:35:22;13.90;;;5.00;;
828;SDS011;396;52.558;13.188;2023-03-01T08:37:49;11.90;;;4.73;;
828;SDS011;396;52.558;13.188;2023-03-01T08:40:15;10.33;;;4.93;;
828;SDS011;396;52.558;13.188;2023-03-01T08:42:42;22.23;;;6.13;;
828;SDS011;396;52.558;13.188;2023-03-01T08:45:10;13.87;;;5.27;;
828;SDS011;396;52.558;13.188;2023-03-01T08:47:39;9.00;;;4.00;;
828;SDS011;396;52.558;13.188;2023-03-01T08:50:06;12.93;;;5.13;;
828;SDS011;396;52.558;13.188;2023-03-01T08:52:33;12.37;;;5.10;;
828;SDS011;396;52.558;13.188;2023-03-01T08:54:59;13.60;;;5.50;;
828;SDS011;396;52.558;13.188;2023-03-01T08:57:27;13.57;;;4.90;;
828;SDS011;396;52.558;13.188;2023-03-01T08:59:53;17.00;;;4.87;;
828;SDS011;396;52.558;13.188;2023-03-01T09:02:22;12.90;;;4.93;;
828;SDS011;396;52.558;13.188;2023-03-01T09:04:49;12.90;;;4.33;;
828;SDS011;396;52.558;13.188;2023-03-01T09:07:15;12.87;;;5.30;;
828;SDS011;396;52.558;13.188;2023-03-01T09:09:42;12.60;;;4.60;;
828;SDS011;396;52.558;13.188;2023-03-01T09:12:09;10.87;;;4.40;;
828;SDS011;396;52.558;13.188;2023-03-01T09:14:35;10.20;;;4.17;;
828;SDS011;396;52.558;13.188;2023-03-01T09:17:03;13.70;;;4.50;;
828;SDS011;396;52.558;13.188;2023-03-01T09:19:31;11.77;;;4.77;;
828;SDS011;396;52.558;13.188;2023-03-01T09:21:58;13.57;;;4.47;;
828;SDS011;396;52.558;13.188;2023-03-01T09:24:25;12.27;;;4.50;;
828;SDS011;396;52.558;13.188;2023-03-01T09:26:55;9.63;;;3.57;;
828;SDS011;396;52.558;13.188;2023-03-01T09:29:22;8.10;;;3.33;;
828;SDS011;396;52.558;13.188;2023-03-01T09:31:49;11.70;;;3.53;;
828;SDS011;396;52.558;13.188;2023-03-01T09:34:16;9.83;;;3.70;;
828;SDS011;396;52.558;13.188;2023-03-01T09:36:49;13.83;;;3.27;;
828;SDS011;396;52.558;13.188;2023-03-01T09:39:16;7.57;;;2.37;;
828;SDS011;396;52.558;13.188;2023-03-01T09:41:45;7.97;;;3.10;;
828;SDS011;396;52.558;13.188;2023-03-01T09:44:21;9.40;;;2.77;;
828;SDS011;396;52.558;13.188;2023-03-01T09:46:56;8.87;;;2.40;;
828;SDS011;396;52.558;13.188;2023-03-01T09:49:24;8.67;;;2.50;;
828;SDS011;396;52.558;13.188;2023-03-01T09:51:59;8.03;;;3.30;;
828;SDS011;396;52.558;13.188;2023-03-01T09:54:29;9.73;;;2.63;;
828;SDS011;396;52.558;13.188;2023-03-01T09:56:59;7.13;;;2.40;;
828;SDS011;396;52.558;13.188;2023-03-01T09:59:37;8.40;;;2.37;;
828;SDS011;396;52.558;13.188;2023-03-01T10:02:19;8.77;;;2.77;;
828;SDS011;396;52.558;13.188;2023-03-01T10:04:51;10.50;;;2.70;;
828;SDS011;396;52.558;13.188;2023-03-01T10:07:25;7.77;;;2.47;;
828;SDS011;396;52.558;13.188;2023-03-01T10:09:56;6.63;;;2.10;;
828;SDS011;396;52.558;13.188;2023-03-01T10:12:26;6.87;;;1.63;;
828;SDS011;396;52.558;13.188;2023-03-01T10:15:00;7.70;;;2.00;;
828;SDS011;396;52.558;13.188;2023-03-01T10:17:33;7.20;;;1.70;;
828;SDS011;396;52.558;13.188;2023-03-01T10:22:53;6.87;;;1.73;;
828;SDS011;396;52.558;13.188;2023-03-01T10:25:23;7.00;;;2.27;;
828;SDS011;396;52.558;13.188;2023-03-01T10:28:04;7.27;;;2.07;;
828;SDS011;396;52.558;13.188;2023-03-01T10:30:36;6.57;;;1.90;;
828;SDS011;396;52.558;13.188;2023-03-01T10:33:09;7.87;;;1.97;;
828;SDS011;396;52.558;13.188;2023-03-01T10:35:43;15.33;;;2.53;;
828;SDS011;396;52.558;13.188;2023-03-01T10:38:11;8.17;;;1.83;;
828;SDS011;396;52.558;13.188;2023-03-01T10:40:50;8.70;;;2.10;;
828;SDS011;396;52.558;13.188;2023-03-01T10:43:18;5.50;;;1.70;;
828;SDS011;396;52.558;13.188;2023-03-01T10:45:45;7.40;;;1.87;;
828;SDS011;396;52.558;13.188;2023-03-01T10:48:14;5.73;;;1.57;;
828;SDS011;396;52.558;13.188;2023-03-01T10:50:43;6.23;;;1.80;;
828;SDS011;396;52.558;13.188;2023-03-01T10:53:21;8.60;;;1.80;;
828;SDS011;396;52.558;13.188;2023-03-01T10:55:58;7.40;;;2.33;;
828;SDS011;396;52.558;13.188;2023-03-01T10:58:27;5.67;;;1.37;;
828;SDS011;396;52.558;13.188;2023-03-01T11:00:55;7.90;;;1.80;;
828;SDS011;396;52.558;13.188;2023-03-01T11:03:23;7.10;;;1.80;;
828;SDS011;396;52.558;13.188;2023-03-01T11:05:53;5.60;;;1.70;;
828;SDS011;396;52.558;13.188;2023-03-01T11:08:33;7.43;;;1.70;;
828;SDS011;396;52.558;13.188;2023-03-01T11:11:16;6.83;;;1.80;;
828;SDS011;396;52.558;13.188;2023-03-01T11:13:52;7.20;;;2.40;;
828;SDS011;396;52.558;13.188;2023-03-01T11:16:28;8.10;;;1.60;;
828;SDS011;396;52.558;13.188;2023-03-01T11:18:59;6.13;;;1.27;;
828;SDS011;396;52.558;13.188;2023-03-01T11:21:31;6.10;;;1.40;;
828;SDS011;396;52.558;13.188;2023-03-01T11:24:01;5.17;;;1.50;;
828;SDS011;396;52.558;13.188;2023-03-01T11:26:30;5.17;;;1.33;;
828;SDS011;396;52.558;13.188;2023-03-01T11:29:02;6.23;;;1.60;;
828;SDS011;396;52.558;13.188;2023-03-01T11:31:33;5.07;;;1.20;;
828;SDS011;396;52.558;13.188;2023-03-01T11:34:03;6.53;;;1.77;;
828;SDS011;396;52.558;13.188;2023-03-01T11:36:34;5.13;;;1.23;;
828;SDS011;396;52.558;13.188;2023-03-01T11:39:12;5.77;;;1.70;;
828;SDS011;396;52.558;13.188;2023-03-01T11:41:48;5.43;;;1.03;;
828;SDS011;396;52.558;13.188;2023-03-01T11:44:20;4.50;;;0.90;;
828;SDS011;396;52.558;13.188;2023-03-01T11:46:54;5.00;;;1.07;;
828;SDS011;396;52.558;13.188;2023-03-01T11:52:44;5.47;;;1.60;;
828;SDS011;396;52.558;13.188;2023-03-01T11:55:24;7.40;;;1.50;;
828;SDS011;396;52.558;13.188;2023-03-01T11:58:01;5.10;;;1.20;;
828;SDS011;396;52.558;13.188;2023-03-01T12:00:54;4.73;;;0.90;;
828;SDS011;396;52.558;13.188;2023-03-01T12:03:31;6.00;;;1.43;;
828;SDS011;396;52.558;13.188;2023-03-01T12:06:23;6.03;;;1.30;;
828;SDS011;396;52.558;13.188;2023-03-01T12:09:09;5.87;;;1.60;;
828;SDS011;396;52.558;13.188;2023-03-01T12:11:59;6.10;;;1.47;;
828;SDS011;396;52.558;13.188;2023-03-01T12:14:44;8.93;;;1.77;;
828;SDS011;396;52.558;13.188;2023-03-01T12:17:33;5.63;;;1.43;;
828;SDS011;396;52.558;13.188;2023-03-01T12:20:21;18.40;;;1.87;;
828;SDS011;396;52.558;13.188;2023-03-01T12:23:00;5.83;;;1.83;;
828;SDS011;396;52.558;13.188;2023-03-01T12:25:41;6.63;;;1.67;;
828;SDS011;396;52.558;13.188;2023-03-01T12:28:31;4.80;;;1.00;;
828;SDS011;396;52.558;13.188;2023-03-01T12:31:19;5.27;;;1.40;;
828;SDS011;396;52.558;13.188;2023-03-01T12:34:03;6.90;;;1.53;;
828;SDS011;396;52.558;13.188;2023-03-01T12:36:48;7.57;;;1.80;;
828;SDS011;396;52.558;13.188;2023-03-01T12:39:36;5.93;;;1.30;;
828;SDS011;396;52.558;13.188;2023-03-01T12:42:18;6.80;;;1.30;;
828;SDS011;396;52.558;13.188;2023-03-01T12:44:55;5.77;;;1.60;;
828;SDS011;396;52.558;13.188;2023-03-01T12:47:42;5.47;;;1.77;;
828;SDS011;396;52.558;13.188;2023-03-01T12:50:20;6.20;;;1.70;;
828;SDS011;396;52.558;13.188;2023-03-01T12:52:49;4.80;;;1.00;;
828;SDS011;396;52.558;13.188;2023-03-01T12:55:25;5.30;;;1.43;;
828;SDS011;396;52.558;13.188;2023-03-01T12:57:57;6.23;;;1.60;;
828;SDS011;396;52.558;13.188;2023-03-01T13:00:35;4.87;;;1.33;;
828;SDS011;396;52.558;13.188;2023-03-01T13:03:09;5.20;;;1.20;;
828;SDS011;396;52.558;13.188;2023-03-01T13:05:51;6.50;;;1.53;;
828;SDS011;396;52.558;13.188;2023-03-01T13:08:31;8.57;;;1.47;;
828;SDS011;396;52.558;13.188;2023-03-01T13:11:11;5.63;;;1.43;;
828;SDS011;396;52.558;13.188;2023-03-01T13:13:42;4.60;;;1.03;;
828;SDS011;396;52.558;13.188;2023-03-01T13:16:38;9.63;;;1.70;;
828;SDS011;396;52.558;13.188;2023-03-01T13:19:08;4.87;;;1.00;;
828;SDS011;396;52.558;13.188;2023-03-01T13:21:38;4.70;;;1.00;;
828;SDS011;396;52.558;13.188;2023-03-01T13:29:50;6.63;;;1.73;;
828;SDS011;396;52.558;13.188;2023-03-01T13:32:22;4.90;;;1.33;;
828;SDS011;396;52.558;13.188;2023-03-01T13:34:54;6.57;;;1.73;;
828;SDS011;396;52.558;13.188;2023-03-01T13:37:23;5.77;;;1.10;;
828;SDS011;396;52.558;13.188;2023-03-01T13:39:54;7.97;;;1.67;;
828;SDS011;396;52.558;13.188;2023-03-01T13:42:33;5.60;;;1.30;;
828;SDS011;396;52.558;13.188;2023-03-01T13:45:12;5.50;;;1.17;;
828;SDS011;396;52.558;13.188;2023-03-01T13:47:45;5.37;;;1.27;;
828;SDS011;396;52.558;13.188;2023-03-01T13:50:18;5.40;;;1.20;;
828;SDS011;396;52.558;13.188;2023-03-01T13:52:48;5.27;;;1.33;;
828;SDS011;396;52.558;13.188;2023-03-01T13:55:19;5.20;;;1.40;;
828;SDS011;396;52.558;13.188;2023-03-01T13:57:50;7.43;;;1.27;;
828;SDS011;396;52.558;13.188;2023-03-01T14:00:33;7.23;;;1.13;;
828;SDS011;396;52.558;13.188;2023-03-01T14:03:10;4.83;;;1.00;;
828;SDS011;396;52.558;13.188;2023-03-01T14:05:40;6.70;;;1.33;;
828;SDS011;396;52.558;13.188;2023-03-01T14:08:21;6.43;;;1.67;;
828;SDS011;396;52.558;13.188;2023-03-01T14:10:53;6.27;;;1.50;;
828;SDS011;396;52.558;13.188;2023-03-01T14:13:30;5.23;;;1.40;;
828;SDS011;396;52.558;13.188;2023-03-01T14:16:11;5.37;;;1.27;;
828;SDS011;396;52.558;13.188;2023-03-01T14:18:51;5.20;;;1.20;;
828;SDS011;396;52.558;13.188;2023-03-01T14:21:27;7.00;;;1.70;;
828;SDS011;396;52.558;13.188;2023-03-01T14:23:55;5.37;;;1.30;;
828;SDS011;396;52.558;13.188;2023-03-01T14:26:23;5.67;;;1.60;;
828;SDS011;396;52.558;13.188;2023-03-01T14:28:50;5.80;;;1.40;;
828;SDS011;396;52.558;13.188;2023-03-01T14:31:31;5.67;;;1.73;;
828;SDS011;396;52.558;13.188;2023-03-01T14:34:03;6.43;;;1.50;;
828;SDS011;396;52.558;13.188;2023-03-01T14:36:31;5.93;;;1.90;;
828;SDS011;396;52.558;13.188;2023-03-01T14:39:00;5.67;;;1.20;;
828;SDS011;396;52.558;13.188;2023-03-01T14:41:31;5.93;;;1.63;;
828;SDS011;396;52.558;13.188;2023-03-01T14:44:01;6.30;;;1.43;;
828;SDS011;396;52.558;13.188;2023-03-01T14:46:30;7.60;;;1.90;;
828;SDS011;396;52.558;13.188;2023-03-01T14:49:01;5.73;;;1.33;;
828;SDS011;396;52.558;13.188;2023-03-01T14:51:34;8.93;;;1.20;;
828;SDS011;396;52.558;13.188;2023-03-01T14:54:02;6.40;;;1.37;;
828;SDS011;396;52.558;13.188;2023-03-01T14:56:36;6.23;;;1.40;;
828;SDS011;396;52.558;13.188;2023-03-01T14:59:10;5.70;;;1.43;;
828;SDS011;396;52.558;13.188;2023-03-01T15:01:37;5.40;;;1.20;;
828;SDS011;396;52.558;13.188;2023-03-01T15:04:06;5.50;;;1.30;;
828;SDS011;396;52.558;13.188;2023-03-01T15:06:38;6.23;;;1.43;;
828;SDS011;396;52.558;13.188;2023-03-01T15:09:05;4.80;;;1.10;;
828;SDS011;396;52.558;13.188;2023-03-01T15:11:33;6.40;;;1.47;;
828;SDS011;396;52.558;13.188;2023-03-01T15:14:02;5.67;;;1.23;;
828;SDS011;396;52.558;13.188;2023-03-01T15:17:12;9.20;;;2.47;;
828;SDS011;396;52.558;13.188;2023-03-01T15:19:47;6.40;;;1.40;;
828;SDS011;396;52.558;13.188;2023-03-01T15:22:14;7.10;;;1.63;;
828;SDS011;396;52.558;13.188;2023-03-01T15:24:41;5.20;;;1.10;;
828;SDS011;396;52.558;13.188;2023-03-01T15:27:14;6.57;;;1.27;;
828;SDS011;396;52.558;13.188;2023-03-01T15:29:46;5.43;;;1.20;;
828;SDS011;396;52.558;13.188;2023-03-01T15:32:25;7.00;;;1.50;;
828;SDS011;396;52.558;13.188;2023-03-01T15:34:56;6.07;;;1.10;;
828;SDS011;396;52.558;13.188;2023-03-01T15:37:37;5.27;;;0.80;;
828;SDS011;396;52.558;13.188;2023-03-01T15:40:17;5.33;;;1.30;;
828;SDS011;396;52.558;13.188;2023-03-01T15:42:45;5.10;;;1.03;;
828;SDS011;396;52.558;13.188;2023-03-01T15:45:20;5.67;;;1.17;;
828;SDS011;396;52.558;13.188;2023-03-01T15:47:48;5.20;;;0.93;;
828;SDS011;396;52.558;13.188;2023-03-01T15:50:19;4.70;;;0.90;;
828;SDS011;396;52.558;13.188;2023-03-01T15:52:48;5.37;;;1.40;;
828;SDS011;396;52.558;13.188;2023-03-01T15:55:16;6.00;;;1.10;;